sensor_id;sensor_type;location;lat;lon;timestamp;pressure;altitude;pressure_sealevel;temperature;humidity
76434;BME280;65265;53.200;6.080;2023-07-28T00:02:15;100294.28;;;17.88;100.00
76434;BME280;65265;53.200;6.080;2023-07-28T00:07:06;100289.97;;;17.83;100.00
76434;BME280;65265;53.200;6.080;2023-07-28T00:11:58;100288.19;;;17.82;100.00
76434;BME280;65265;53.200;6.080;2023-07-28T00:16:52;100285.63;;;17.77;100.00
76434;BME280;65265;53.200;6.080;2023-07-28T00:21:43;100286.47;;;17.78;100.00
76434;BME280;65265;53.200;6.080;2023-07-28T00:26:35;100283.06;;;17.77;100.00
76434;BME280;65265;53.200;6.080;2023-07-28T00:31:26;100280.47;;;17.77;100.00
76434;BME280;65265;53.200;6.080;2023-07-28T00:36:19;100283.06;;;17.77;100.00
76434;BME280;65265;53.200;6.080;2023-07-28T00:41:11;100286.47;;;17.81;100.00
76434;BME280;65265;53.200;6.080;2023-07-28T00:46:02;100283.03;;;17.82;100.00
76434;BME280;65265;53.200;6.080;2023-07-28T00:50:53;100288.22;;;17.80;100.00
76434;BME280;65265;53.200;6.080;2023-07-28T00:55:46;100282.16;;;17.80;100.00
76434;BME280;65265;53.200;6.080;2023-07-28T01:00:38;100282.19;;;17.84;100.00
76434;BME280;65265;53.200;6.080;2023-07-28T01:05:36;100272.69;;;17.79;100.00
76434;BME280;65265;53.200;6.080;2023-07-28T01:10:31;100283.03;;;17.82;100.00
76434;BME280;65265;53.200;6.080;2023-07-28T01:15:25;100276.13;;;17.78;100.00
76434;BME280;65265;53.200;6.080;2023-07-28T01:20:17;100281.31;;;17.78;100.00
76434;BME280;65265;53.200;6.080;2023-07-28T01:25:16;100280.44;;;17.79;100.00
76434;BME280;65265;53.200;6.080;2023-07-28T01:30:11;100270.97;;;17.75;100.00
76434;BME280;65265;53.200;6.080;2023-07-28T01:35:03;100275.25;;;17.74;100.00
76434;BME280;65265;53.200;6.080;2023-07-28T01:39:55;100290.81;;;17.77;100.00
76434;BME280;65265;53.200;6.080;2023-07-28T01:44:47;100281.31;;;17.78;100.00
76434;BME280;65265;53.200;6.080;2023-07-28T01:49:40;100277.88;;;17.76;100.00
76434;BME280;65265;53.200;6.080;2023-07-28T01:54:31;100283.03;;;17.73;100.00
76434;BME280;65265;53.200;6.080;2023-07-28T01:59:23;100288.22;;;17.73;100.00
76434;BME280;65265;53.200;6.080;2023-07-28T02:04:14;100283.91;;;17.72;100.00
76434;BME280;65265;53.200;6.080;2023-07-28T02:09:07;100287.31;;;17.71;100.00
76434;BME280;65265;53.200;6.080;2023-07-28T02:13:59;100286.47;;;17.78;100.00
76434;BME280;65265;53.200;6.080;2023-07-28T02:18:50;100285.59;;;17.70;100.00
76434;BME280;65265;53.200;6.080;2023-07-28T02:23:42;100283.03;;;17.68;100.00
76434;BME280;65265;53.200;6.080;2023-07-28T02:28:34;100295.94;;;17.70;100.00
76434;BME280;65265;53.200;6.080;2023-07-28T02:33:27;100288.16;;;17.65;100.00
76434;BME280;65265;53.200;6.080;2023-07-28T02:38:19;100286.44;;;17.64;100.00
76434;BME280;65265;53.200;6.080;2023-07-28T02:43:11;100287.31;;;17.63;100.00
76434;BME280;65265;53.200;6.080;2023-07-28T02:48:04;100291.63;;;17.61;100.00
76434;BME280;65265;53.200;6.080;2023-07-28T02:52:56;100295.06;;;17.62;100.00
76434;BME280;65265;53.200;6.080;2023-07-28T02:57:47;100295.91;;;17.58;100.00
76434;BME280;65265;53.200;6.080;2023-07-28T03:02:39;100301.09;;;17.59;100.00
76434;BME280;65265;53.200;6.080;2023-07-28T03:07:32;100315.72;;;17.59;100.00
76434;BME280;65265;53.200;6.080;2023-07-28T03:12:23;100321.78;;;17.56;100.00
76434;BME280;65265;53.200;6.080;2023-07-28T03:17:15;100321.78;;;17.59;100.00
76434;BME280;65265;53.200;6.080;2023-07-28T03:22:06;100328.69;;;17.63;100.00
76434;BME280;65265;53.200;6.080;2023-07-28T03:26:59;100326.13;;;17.62;100.00
76434;BME280;65265;53.200;6.080;2023-07-28T03:31:50;100333.00;;;17.63;100.00
76434;BME280;65265;53.200;6.080;2023-07-28T03:36:42;100323.53;;;17.62;100.00
76434;BME280;65265;53.200;6.080;2023-07-28T03:41:33;100328.69;;;17.60;100.00
76434;BME280;65265;53.200;6.080;2023-07-28T03:46:26;100339.91;;;17.70;100.00
76434;BME280;65265;53.200;6.080;2023-07-28T03:51:18;100336.47;;;17.71;100.00
76434;BME280;65265;53.200;6.080;2023-07-28T03:56:10;100338.22;;;17.72;100.00
76434;BME280;65265;53.200;6.080;2023-07-28T04:01:02;100338.16;;;17.64;100.00
76434;BME280;65265;53.200;6.080;2023-07-28T04:05:55;100341.63;;;17.65;100.00
76434;BME280;65265;53.200;6.080;2023-07-28T04:10:46;100339.03;;;17.62;100.00
76434;BME280;65265;53.200;6.080;2023-07-28T04:15:38;100345.06;;;17.64;100.00
76434;BME280;65265;53.200;6.080;2023-07-28T04:20:29;100355.41;;;17.61;100.00
76434;BME280;65265;53.200;6.080;2023-07-28T04:25:22;100358.00;;;17.64;100.00
76434;BME280;65265;53.200;6.080;2023-07-28T04:30:14;100362.31;;;17.65;100.00
76434;BME280;65265;53.200;6.080;2023-07-28T04:35:06;100367.50;;;17.65;100.00
76434;BME280;65265;53.200;6.080;2023-07-28T04:39:58;100369.22;;;17.66;100.00
76434;BME280;65265;53.200;6.080;2023-07-28T04:44:50;100370.09;;;17.66;100.00
76434;BME280;65265;53.200;6.080;2023-07-28T04:49:42;100378.69;;;17.64;100.00
76434;BME280;65265;53.200;6.080;2023-07-28T04:54:33;100374.38;;;17.66;100.00
76434;BME280;65265;53.200;6.080;2023-07-28T04:59:25;100381.28;;;17.67;100.00
76434;BME280;65265;53.200;6.080;2023-07-28T05:04:17;100387.34;;;17.70;100.00
76434;BME280;65265;53.200;6.080;2023-07-28T05:09:09;100387.34;;;17.70;100.00
76434;BME280;65265;53.200;6.080;2023-07-28T05:14:00;100395.97;;;17.75;100.00
76434;BME280;65265;53.200;6.080;2023-07-28T05:18:52;100398.56;;;17.72;100.00
76434;BME280;65265;53.200;6.080;2023-07-28T05:23:45;100395.97;;;17.80;100.00
76434;BME280;65265;53.200;6.080;2023-07-28T05:28:36;100402.88;;;17.78;100.00
76434;BME280;65265;53.200;6.080;2023-07-28T05:33:27;100396.84;;;17.82;100.00
76434;BME280;65265;53.200;6.080;2023-07-28T05:38:19;100401.19;;;17.81;100.00
76434;BME280;65265;53.200;6.080;2023-07-28T05:43:12;100404.66;;;17.85;100.00
76434;BME280;65265;53.200;6.080;2023-07-28T05:48:04;100408.94;;;17.87;100.00
76434;BME280;65265;53.200;6.080;2023-07-28T05:52:55;100412.41;;;17.91;100.00
76434;BME280;65265;53.200;6.080;2023-07-28T05:57:47;100416.75;;;17.95;100.00
76434;BME280;65265;53.200;6.080;2023-07-28T06:02:39;100412.41;;;17.88;100.00
76434;BME280;65265;53.200;6.080;2023-07-28T06:07:31;100415.88;;;17.90;100.00
76434;BME280;65265;53.200;6.080;2023-07-28T06:12:22;100427.09;;;17.96;100.00
76434;BME280;65265;53.200;6.080;2023-07-28T06:17:14;100432.31;;;18.02;100.00
76434;BME280;65265;53.200;6.080;2023-07-28T06:22:08;100434.91;;;18.10;100.00
76434;BME280;65265;53.200;6.080;2023-07-28T06:26:59;100438.34;;;18.09;100.00
76434;BME280;65265;53.200;6.080;2023-07-28T06:31:53;100436.63;;;18.11;100.00
76434;BME280;65265;53.200;6.080;2023-07-28T06:36:45;100447.03;;;18.23;100.00
76434;BME280;65265;53.200;6.080;2023-07-28T06:41:38;100452.22;;;18.27;100.00
76434;BME280;65265;53.200;6.080;2023-07-28T06:46:29;100466.06;;;18.37;100.00
76434;BME280;65265;53.200;6.080;2023-07-28T06:51:21;100468.69;;;18.44;100.00
76434;BME280;65265;53.200;6.080;2023-07-28T06:56:12;100480.78;;;18.50;100.00
76434;BME280;65265;53.200;6.080;2023-07-28T07:01:06;100481.63;;;18.46;100.00
76434;BME280;65265;53.200;6.080;2023-07-28T07:06:00;100485.94;;;18.44;100.00
76434;BME280;65265;53.200;6.080;2023-07-28T07:10:52;100498.03;;;18.48;100.00
76434;BME280;65265;53.200;6.080;2023-07-28T07:15:43;100502.34;;;18.43;100.00
76434;BME280;65265;53.200;6.080;2023-07-28T07:20:37;100508.41;;;18.51;100.00
76434;BME280;65265;53.200;6.080;2023-07-28T07:25:29;100519.63;;;18.47;100.00
76434;BME280;65265;53.200;6.080;2023-07-28T07:30:20;100520.50;;;18.47;100.00
76434;BME280;65265;53.200;6.080;2023-07-28T07:35:12;100531.69;;;18.45;100.00
76434;BME280;65265;53.200;6.080;2023-07-28T07:40:06;100542.06;;;18.42;100.00
76434;BME280;65265;53.200;6.080;2023-07-28T07:44:58;100548.94;;;18.35;100.00
76434;BME280;65265;53.200;6.080;2023-07-28T07:49:49;100554.97;;;18.37;100.00
76434;BME280;65265;53.200;6.080;2023-07-28T07:54:41;100552.38;;;18.36;100.00
76434;BME280;65265;53.200;6.080;2023-07-28T07:59:34;100556.72;;;18.43;100.00
76434;BME280;65265;53.200;6.080;2023-07-28T08:04:25;100560.25;;;18.55;100.00
76434;BME280;65265;53.200;6.080;2023-07-28T08:09:18;100564.56;;;18.64;100.00
76434;BME280;65265;53.200;6.080;2023-07-28T08:14:09;100573.25;;;18.78;100.00
76434;BME280;65265;53.200;6.080;2023-07-28T08:19:02;100572.41;;;18.89;100.00
76434;BME280;65265;53.200;6.080;2023-07-28T08:23:54;100581.03;;;18.97;100.00
76434;BME280;65265;53.200;6.080;2023-07-28T08:28:45;100590.56;;;19.03;100.00
76434;BME280;65265;53.200;6.080;2023-07-28T08:33:37;100584.53;;;19.16;100.00
76434;BME280;65265;53.200;6.080;2023-07-28T08:38:30;100592.38;;;19.23;100.00
76434;BME280;65265;53.200;6.080;2023-07-28T08:43:21;100592.34;;;19.41;100.00
76434;BME280;65265;53.200;6.080;2023-07-28T08:48:13;100586.31;;;19.60;100.00
76434;BME280;65265;53.200;6.080;2023-07-28T08:53:05;100598.41;;;19.74;100.00
76434;BME280;65265;53.200;6.080;2023-07-28T08:58:13;100592.31;;;19.86;100.00
76434;BME280;65265;53.200;6.080;2023-07-28T09:03:05;100586.28;;;19.94;100.00
76434;BME280;65265;53.200;6.080;2023-07-28T09:07:59;100593.16;;;20.19;100.00
76434;BME280;65265;53.200;6.080;2023-07-28T09:12:51;100595.63;;;20.46;100.00
76434;BME280;65265;53.200;6.080;2023-07-28T09:17:44;100593.72;;;20.81;100.00
76434;BME280;65265;53.200;6.080;2023-07-28T09:22:36;100604.16;;;20.78;100.00
76434;BME280;65265;53.200;6.080;2023-07-28T09:27:27;100605.00;;;20.85;100.00
76434;BME280;65265;53.200;6.080;2023-07-28T09:32:27;100599.66;;;21.16;100.00
76434;BME280;65265;53.200;6.080;2023-07-28T09:37:24;100600.47;;;21.23;100.00
76434;BME280;65265;53.200;6.080;2023-07-28T09:42:16;100613.31;;;21.42;100.00
76434;BME280;65265;53.200;6.080;2023-07-28T09:47:07;100615.75;;;21.66;100.00
76434;BME280;65265;53.200;6.080;2023-07-28T09:52:04;100616.75;;;21.44;99.42
76434;BME280;65265;53.200;6.080;2023-07-28T09:56:58;100612.56;;;21.28;100.00
76434;BME280;65265;53.200;6.080;2023-07-28T10:01:49;100619.41;;;21.41;99.31
76434;BME280;65265;53.200;6.080;2023-07-28T10:06:41;100626.28;;;21.45;100.00
76434;BME280;65265;53.200;6.080;2023-07-28T10:11:33;100624.34;;;21.71;97.75
76434;BME280;65265;53.200;6.080;2023-07-28T10:16:37;100619.84;;;21.93;100.00
76434;BME280;65265;53.200;6.080;2023-07-28T10:21:29;100620.63;;;21.99;97.56
76434;BME280;65265;53.200;6.080;2023-07-28T10:26:31;100626.16;;;22.52;91.35
76434;BME280;65265;53.200;6.080;2023-07-28T10:31:29;100626.63;;;22.84;94.33
76434;BME280;65265;53.200;6.080;2023-07-28T10:36:33;100630.06;;;22.86;90.62
76434;BME280;65265;53.200;6.080;2023-07-28T10:41:25;100641.28;;;22.91;89.09
76434;BME280;65265;53.200;6.080;2023-07-28T10:46:20;100644.13;;;22.76;92.19
76434;BME280;65265;53.200;6.080;2023-07-28T10:51:12;100638.03;;;22.75;92.20
76434;BME280;65265;53.200;6.080;2023-07-28T10:56:12;100633.28;;;23.06;95.58
76434;BME280;65265;53.200;6.080;2023-07-28T11:01:04;100640.22;;;23.07;90.86
76434;BME280;65265;53.200;6.080;2023-07-28T11:05:55;100640.97;;;23.18;90.04
76434;BME280;65265;53.200;6.080;2023-07-28T11:10:47;100640.66;;;23.39;86.08
76434;BME280;65265;53.200;6.080;2023-07-28T11:15:40;100643.41;;;23.27;84.77
76434;BME280;65265;53.200;6.080;2023-07-28T11:20:32;100637.09;;;23.41;86.22
76434;BME280;65265;53.200;6.080;2023-07-28T11:25:23;100650.50;;;23.75;82.50
76434;BME280;65265;53.200;6.080;2023-07-28T11:30:16;100657.31;;;23.83;79.62
76434;BME280;65265;53.200;6.080;2023-07-28T11:35:11;100657.59;;;23.67;83.97
76434;BME280;65265;53.200;6.080;2023-07-28T11:40:05;100650.78;;;23.57;80.78
76434;BME280;65265;53.200;6.080;2023-07-28T11:44:58;100659.09;;;23.81;84.90
76434;BME280;65265;53.200;6.080;2023-07-28T11:49:50;100654.91;;;24.21;79.28
76434;BME280;65265;53.200;6.080;2023-07-28T11:54:43;100669.66;;;24.25;76.58
76434;BME280;65265;53.200;6.080;2023-07-28T11:59:35;100671.91;;;24.45;72.85
76434;BME280;65265;53.200;6.080;2023-07-28T12:04:27;100665.63;;;24.55;75.00
76434;BME280;65265;53.200;6.080;2023-07-28T12:09:19;100662.50;;;24.80;73.96
76434;BME280;65265;53.200;6.080;2023-07-28T12:14:12;100660.03;;;24.73;74.22
76434;BME280;65265;53.200;6.080;2023-07-28T12:19:03;100661.28;;;24.52;76.43
76434;BME280;65265;53.200;6.080;2023-07-28T12:23:55;100670.91;;;24.52;75.80
76434;BME280;65265;53.200;6.080;2023-07-28T12:28:46;100677.38;;;24.77;73.19
76434;BME280;65265;53.200;6.080;2023-07-28T12:33:39;100671.91;;;24.88;77.25
76434;BME280;65265;53.200;6.080;2023-07-28T12:38:30;100667.00;;;25.13;73.16
76434;BME280;65265;53.200;6.080;2023-07-28T12:43:21;100678.28;;;25.16;72.58
76434;BME280;65265;53.200;6.080;2023-07-28T12:48:14;100676.75;;;25.06;73.76
76434;BME280;65265;53.200;6.080;2023-07-28T12:53:07;100668.69;;;25.15;71.37
76434;BME280;65265;53.200;6.080;2023-07-28T12:57:58;100676.38;;;25.62;74.42
76434;BME280;65265;53.200;6.080;2023-07-28T13:02:50;100677.69;;;25.78;70.29
76434;BME280;65265;53.200;6.080;2023-07-28T13:07:41;100678.38;;;25.12;73.30
76434;BME280;65265;53.200;6.080;2023-07-28T13:12:34;100679.47;;;25.41;71.37
76434;BME280;65265;53.200;6.080;2023-07-28T13:17:25;100683.19;;;25.31;70.91
76434;BME280;65265;53.200;6.080;2023-07-28T13:22:17;100682.09;;;25.02;72.40
76434;BME280;65265;53.200;6.080;2023-07-28T13:27:08;100676.59;;;25.52;72.39
76434;BME280;65265;53.200;6.080;2023-07-28T13:32:01;100682.13;;;26.11;75.36
76434;BME280;65265;53.200;6.080;2023-07-28T13:36:52;100689.56;;;26.28;67.93
76434;BME280;65265;53.200;6.080;2023-07-28T13:41:44;100684.06;;;26.03;70.12
76434;BME280;65265;53.200;6.080;2023-07-28T13:46:35;100680.31;;;25.78;72.84
76434;BME280;65265;53.200;6.080;2023-07-28T13:51:28;100687.38;;;25.75;71.35
76434;BME280;65265;53.200;6.080;2023-07-28T13:56:20;100681.91;;;25.49;74.17
76434;BME280;65265;53.200;6.080;2023-07-28T14:01:11;100671.63;;;26.13;69.92
76434;BME280;65265;53.200;6.080;2023-07-28T14:06:03;100675.09;;;26.44;71.82
76434;BME280;65265;53.200;6.080;2023-07-28T14:10:56;100682.03;;;25.79;70.54
76434;BME280;65265;53.200;6.080;2023-07-28T14:15:47;100679.47;;;25.78;75.24
76434;BME280;65265;53.200;6.080;2023-07-28T14:20:39;100680.63;;;25.66;70.40
76434;BME280;65265;53.200;6.080;2023-07-28T14:25:30;100687.19;;;25.08;74.03
76434;BME280;65265;53.200;6.080;2023-07-28T14:30:23;100682.09;;;25.00;75.39
76434;BME280;65265;53.200;6.080;2023-07-28T14:35:14;100682.00;;;25.06;75.95
76434;BME280;65265;53.200;6.080;2023-07-28T14:40:07;100685.28;;;25.14;79.19
76434;BME280;65265;53.200;6.080;2023-07-28T14:44:59;100686.56;;;25.36;75.17
76434;BME280;65265;53.200;6.080;2023-07-28T14:49:51;100678.16;;;25.22;75.41
76434;BME280;65265;53.200;6.080;2023-07-28T14:54:43;100673.16;;;25.10;74.03
76434;BME280;65265;53.200;6.080;2023-07-28T14:59:34;100684.72;;;25.00;78.03
76434;BME280;65265;53.200;6.080;2023-07-28T15:04:26;100688.16;;;25.04;75.63
76434;BME280;65265;53.200;6.080;2023-07-28T15:09:18;100689.78;;;25.09;73.49
76434;BME280;65265;53.200;6.080;2023-07-28T15:14:13;100679.31;;;25.08;73.83
76434;BME280;65265;53.200;6.080;2023-07-28T15:19:06;100687.00;;;25.15;73.28
76434;BME280;65265;53.200;6.080;2023-07-28T15:23:57;100685.72;;;24.95;76.12
76434;BME280;65265;53.200;6.080;2023-07-28T15:28:50;100697.00;;;24.97;74.00
76434;BME280;65265;53.200;6.080;2023-07-28T15:33:42;100683.16;;;24.50;77.18
76434;BME280;65265;53.200;6.080;2023-07-28T15:38:33;100687.31;;;24.60;79.46
76434;BME280;65265;53.200;6.080;2023-07-28T15:43:24;100693.81;;;24.83;78.26
76434;BME280;65265;53.200;6.080;2023-07-28T15:48:17;100692.59;;;24.58;79.32
76434;BME280;65265;53.200;6.080;2023-07-28T15:53:09;100692.31;;;24.25;79.73
76434;BME280;65265;53.200;6.080;2023-07-28T15:58:00;100684.81;;;24.07;81.73
76434;BME280;65265;53.200;6.080;2023-07-28T16:02:51;100692.06;;;23.90;82.02
76434;BME280;65265;53.200;6.080;2023-07-28T16:07:44;100689.97;;;24.11;81.82
76434;BME280;65265;53.200;6.080;2023-07-28T16:12:36;100695.66;;;23.81;83.72
76434;BME280;65265;53.200;6.080;2023-07-28T16:17:27;100695.72;;;23.77;84.86
76434;BME280;65265;53.200;6.080;2023-07-28T16:22:18;100697.44;;;23.79;83.83
76434;BME280;65265;53.200;6.080;2023-07-28T16:27:11;100691.34;;;23.79;81.78
76434;BME280;65265;53.200;6.080;2023-07-28T16:32:04;100699.13;;;23.85;85.79
76434;BME280;65265;53.200;6.080;2023-07-28T16:36:56;100699.09;;;23.83;82.69
76434;BME280;65265;53.200;6.080;2023-07-28T16:41:50;100697.03;;;23.49;86.03
76434;BME280;65265;53.200;6.080;2023-07-28T16:46:43;100687.69;;;23.34;87.21
76434;BME280;65265;53.200;6.080;2023-07-28T16:51:36;100687.94;;;23.18;87.07
76434;BME280;65265;53.200;6.080;2023-07-28T16:56:27;100684.44;;;23.19;89.05
76434;BME280;65265;53.200;6.080;2023-07-28T17:01:19;100688.16;;;22.98;86.97
76434;BME280;65265;53.200;6.080;2023-07-28T17:06:12;100692.47;;;23.02;88.47
76434;BME280;65265;53.200;6.080;2023-07-28T17:11:03;100686.22;;;23.17;87.82
76434;BME280;65265;53.200;6.080;2023-07-28T17:15:55;100686.31;;;23.05;88.44
76434;BME280;65265;53.200;6.080;2023-07-28T17:20:46;100680.31;;;23.00;88.53
76434;BME280;65265;53.200;6.080;2023-07-28T17:25:39;100682.97;;;22.97;89.68
76434;BME280;65265;53.200;6.080;2023-07-28T17:30:30;100682.13;;;22.95;89.58
76434;BME280;65265;53.200;6.080;2023-07-28T17:35:22;100686.25;;;23.12;89.81
76434;BME280;65265;53.200;6.080;2023-07-28T17:40:13;100691.47;;;23.09;87.96
76434;BME280;65265;53.200;6.080;2023-07-28T17:45:07;100694.44;;;22.84;89.16
76434;BME280;65265;53.200;6.080;2023-07-28T17:49:58;100695.34;;;22.81;88.95
76434;BME280;65265;53.200;6.080;2023-07-28T17:54:50;100687.84;;;22.53;89.81
76434;BME280;65265;53.200;6.080;2023-07-28T17:59:41;100695.91;;;22.27;89.49
76434;BME280;65265;53.200;6.080;2023-07-28T18:04:34;100698.75;;;22.05;89.88
76434;BME280;65265;53.200;6.080;2023-07-28T18:09:25;100704.88;;;21.97;90.70
76434;BME280;65265;53.200;6.080;2023-07-28T18:14:17;100700.63;;;21.84;90.14
76434;BME280;65265;53.200;6.080;2023-07-28T18:19:08;100706.00;;;21.64;90.04
76434;BME280;65265;53.200;6.080;2023-07-28T18:24:01;100710.38;;;21.52;92.30
76434;BME280;65265;53.200;6.080;2023-07-28T18:28:53;100713.03;;;21.44;91.52
76434;BME280;65265;53.200;6.080;2023-07-28T18:33:44;100721.78;;;21.34;91.41
76434;BME280;65265;53.200;6.080;2023-07-28T18:38:36;100713.13;;;21.26;93.04
76434;BME280;65265;53.200;6.080;2023-07-28T18:43:28;100719.25;;;21.22;93.16
76434;BME280;65265;53.200;6.080;2023-07-28T18:48:22;100711.47;;;21.13;92.73
76434;BME280;65265;53.200;6.080;2023-07-28T18:53:13;100714.13;;;21.01;94.71
76434;BME280;65265;53.200;6.080;2023-07-28T18:58:05;100705.50;;;20.96;94.51
76434;BME280;65265;53.200;6.080;2023-07-28T19:02:58;100712.47;;;20.87;95.62
76434;BME280;65265;53.200;6.080;2023-07-28T19:07:49;100703.81;;;20.79;96.00
76434;BME280;65265;53.200;6.080;2023-07-28T19:12:40;100702.09;;;20.76;95.95
76434;BME280;65265;53.200;6.080;2023-07-28T19:17:32;100710.78;;;20.72;96.99
76434;BME280;65265;53.200;6.080;2023-07-28T19:22:25;100716.00;;;20.63;97.74
76434;BME280;65265;53.200;6.080;2023-07-28T19:27:17;100709.06;;;20.58;98.84
76434;BME280;65265;53.200;6.080;2023-07-28T19:32:10;100713.44;;;20.51;100.00
76434;BME280;65265;53.200;6.080;2023-07-28T19:37:01;100721.25;;;20.44;100.00
76434;BME280;65265;53.200;6.080;2023-07-28T19:41:54;100710.00;;;20.31;100.00
76434;BME280;65265;53.200;6.080;2023-07-28T19:46:46;100728.19;;;20.21;100.00
76434;BME280;65265;53.200;6.080;2023-07-28T19:51:37;100728.19;;;20.10;100.00
76434;BME280;65265;53.200;6.080;2023-07-28T19:56:29;100731.66;;;20.03;100.00
76434;BME280;65265;53.200;6.080;2023-07-28T20:01:22;100728.16;;;20.01;100.00
76434;BME280;65265;53.200;6.080;2023-07-28T20:06:14;100733.34;;;19.88;100.00
76434;BME280;65265;53.200;6.080;2023-07-28T20:11:06;100710.84;;;19.72;100.00
76434;BME280;65265;53.200;6.080;2023-07-28T20:15:57;100728.16;;;19.65;100.00
76434;BME280;65265;53.200;6.080;2023-07-28T20:20:50;100732.44;;;19.60;100.00
76434;BME280;65265;53.200;6.080;2023-07-28T20:25:42;100729.88;;;19.56;100.00
76434;BME280;65265;53.200;6.080;2023-07-28T20:30:33;100728.13;;;19.52;100.00
76434;BME280;65265;53.200;6.080;2023-07-28T20:35:25;100725.50;;;19.45;100.00
76434;BME280;65265;53.200;6.080;2023-07-28T20:40:18;100734.13;;;19.38;100.00
76434;BME280;65265;53.200;6.080;2023-07-28T20:45:10;100735.88;;;19.33;100.00
76434;BME280;65265;53.200;6.080;2023-07-28T20:50:02;100729.81;;;19.28;100.00
76434;BME280;65265;53.200;6.080;2023-07-28T20:54:54;100730.69;;;19.30;100.00
76434;BME280;65265;53.200;6.080;2023-07-28T20:59:47;100724.63;;;19.31;100.00
76434;BME280;65265;53.200;6.080;2023-07-28T21:04:38;100723.75;;;19.32;100.00
76434;BME280;65265;53.200;6.080;2023-07-28T21:09:29;100726.34;;;19.32;100.00
76434;BME280;65265;53.200;6.080;2023-07-28T21:14:21;100719.44;;;19.31;100.00
76434;BME280;65265;53.200;6.080;2023-07-28T21:19:14;100722.91;;;19.30;100.00
76434;BME280;65265;53.200;6.080;2023-07-28T21:24:05;100728.06;;;19.31;100.00
76434;BME280;65265;53.200;6.080;2023-07-28T21:28:57;100722.03;;;19.28;100.00
76434;BME280;65265;53.200;6.080;2023-07-28T21:33:48;100719.44;;;19.23;100.00
76434;BME280;65265;53.200;6.080;2023-07-28T21:38:42;100726.31;;;19.20;100.00
76434;BME280;65265;53.200;6.080;2023-07-28T21:43:33;100721.94;;;19.16;100.00
76434;BME280;65265;53.200;6.080;2023-07-28T21:48:25;100709.84;;;19.12;100.00
76434;BME280;65265;53.200;6.080;2023-07-28T21:53:16;100711.56;;;19.07;100.00
76434;BME280;65265;53.200;6.080;2023-07-28T21:58:09;100714.97;;;19.00;100.00
76434;BME280;65265;53.200;6.080;2023-07-28T22:03:01;100707.16;;;18.91;100.00
76434;BME280;65265;53.200;6.080;2023-07-28T22:07:53;100706.25;;;18.80;100.00
76434;BME280;65265;53.200;6.080;2023-07-28T22:12:44;100707.97;;;18.78;100.00
76434;BME280;65265;53.200;6.080;2023-07-28T22:17:37;100703.63;;;18.75;100.00
76434;BME280;65265;53.200;6.080;2023-07-28T22:22:29;100698.47;;;18.74;100.00
76434;BME280;65265;53.200;6.080;2023-07-28T22:27:21;100695.88;;;18.77;100.00
76434;BME280;65265;53.200;6.080;2023-07-28T22:32:13;100688.09;;;18.75;100.00
76434;BME280;65265;53.200;6.080;2023-07-28T22:37:06;100671.69;;;18.75;100.00
76434;BME280;65265;53.200;6.080;2023-07-28T22:41:58;100683.78;;;18.76;100.00
76434;BME280;65265;53.200;6.080;2023-07-28T22:46:49;100688.09;;;18.75;100.00
76434;BME280;65265;53.200;6.080;2023-07-28T22:51:40;100690.69;;;18.74;100.00
76434;BME280;65265;53.200;6.080;2023-07-28T22:56:33;100678.59;;;18.73;100.00
76434;BME280;65265;53.200;6.080;2023-07-28T23:01:25;100684.63;;;18.73;100.00
76434;BME280;65265;53.200;6.080;2023-07-28T23:06:16;100687.22;;;18.72;100.00
76434;BME280;65265;53.200;6.080;2023-07-28T23:11:08;100677.69;;;18.68;100.00
76434;BME280;65265;53.200;6.080;2023-07-28T23:16:01;100682.88;;;18.68;100.00
76434;BME280;65265;53.200;6.080;2023-07-28T23:20:52;100685.47;;;18.65;100.00
76434;BME280;65265;53.200;6.080;2023-07-28T23:25:43;100682.88;;;18.62;100.00
76434;BME280;65265;53.200;6.080;2023-07-28T23:30:35;100682.84;;;18.63;100.00
76434;BME280;65265;53.200;6.080;2023-07-28T23:35:28;100681.97;;;18.60;100.00
76434;BME280;65265;53.200;6.080;2023-07-28T23:40:19;100681.97;;;18.60;100.00
76434;BME280;65265;53.200;6.080;2023-07-28T23:45:11;100675.06;;;18.56;100.00
76434;BME280;65265;53.200;6.080;2023-07-28T23:50:03;100675.06;;;18.56;100.00
76434;BME280;65265;53.200;6.080;2023-07-28T23:54:56;100655.19;;;18.52;100.00
76434;BME280;65265;53.200;6.080;2023-07-28T23:59:47;100652.59;;;18.52;100.00
